Time;durP1;ratioP1;P1;durP2;ratioP2;P2;SDS_P1;SDS_P2;PMS_P1;PMS_P2;Temp;Humidity;BMP_temperature;BMP_pressure;BME280_temperature;BME280_humidity;BME280_pressure;Samples;Min_cycle;Max_cycle;Signal;HPM_P1;HPM_P2
2021/08/03 00:01:44;;;;;;;;;;;;;;;21.02;44.50;101000.28;4984884;28;99368;-76
2021/08/03 00:04:11;;;;;;;;;;;;;;;21.01;44.24;101001.25;4986676;28;97067;-76
2021/08/03 00:06:40;;;;;;;;;;;;;;;21.02;44.64;101005.66;4990292;28;97880;-79
2021/08/03 00:09:07;;;;;;;;;;;;;;;21.08;44.12;100999.81;4991451;28;99286;-76
2021/08/03 00:11:39;;;;;;;;;;;;;;;21.02;43.96;101004.81;4987177;28;98776;-77
2021/08/03 00:14:05;;;;;;;;;;;;;;;21.00;44.10;100994.16;4991576;28;96927;-77
2021/08/03 00:16:34;;;;;;;;;;;;;;;20.92;44.67;100993.91;4988328;28;97012;-77
2021/08/03 00:19:00;;;;;;;;;;;;;;;20.92;44.63;100991.22;4992980;28;98931;-77
2021/08/03 00:21:27;;;;;;;;;;;;;;;20.97;44.40;100993.56;4988699;28;99246;-76
2021/08/03 00:23:53;;;;;;;;;;;;;;;20.84;45.14;100993.63;4992456;28;96827;-77
2021/08/03 00:26:21;;;;;;;;;;;;;;;20.79;45.24;100993.09;4986207;28;97917;-76
2021/08/03 00:28:50;;;;;;;;;;;;;;;20.71;45.14;100991.94;4993507;28;98893;-77
2021/08/03 00:31:17;;;;;;;;;;;;;;;20.67;45.58;100994.00;4994156;28;98819;-75
2021/08/03 00:33:44;;;;;;;;;;;;;;;20.76;45.09;100987.09;4992651;28;96783;-75
2021/08/03 00:36:11;;;;;;;;;;;;;;;20.68;44.99;100991.19;4989629;28;97311;-75
2021/08/03 00:38:38;;;;;;;;;;;;;;;20.68;45.17;100995.69;4992519;28;98962;-75
2021/08/03 00:41:07;;;;;;;;;;;;;;;20.67;45.14;100999.38;4994942;28;98851;-77
2021/08/03 00:43:33;;;;;;;;;;;;;;;20.64;45.54;101005.81;4996093;28;96751;-78
2021/08/03 00:46:01;;;;;;;;;;;;;;;20.53;45.99;101002.22;4980651;28;98165;-77
2021/08/03 00:48:27;;;;;;;;;;;;;;;20.73;45.42;100995.38;4985263;28;99025;-76
2021/08/03 00:50:54;;;;;;;;;;;;;;;20.69;45.30;100997.41;4988589;28;97753;-76
2021/08/03 00:53:20;;;;;;;;;;;;;;;20.57;45.79;101001.00;4989743;28;96899;-76
2021/08/03 00:55:47;;;;;;;;;;;;;;;20.61;45.51;100997.97;4995561;28;96965;-77
2021/08/03 00:58:13;;;;;;;;;;;;;;;20.47;45.81;100997.28;4994735;28;99328;-75
2021/08/03 01:00:40;;;;;;;;;;;;;;;20.49;45.78;100996.19;4985299;28;98842;-75
2021/08/03 01:03:08;;;;;;;;;;;;;;;20.45;46.01;100992.03;4995056;28;97200;-75
2021/08/03 01:05:38;;;;;;;;;;;;;;;20.46;45.92;100996.44;4992037;28;97748;-77
2021/08/03 01:08:08;;;;;;;;;;;;;;;20.34;46.61;100996.47;4993179;28;97856;-77
2021/08/03 01:10:38;;;;;;;;;;;;;;;20.29;46.69;100989.56;4994034;28;98810;-76
2021/08/03 01:13:08;;;;;;;;;;;;;;;20.21;47.46;100993.78;4994367;28;97662;-76
2021/08/03 01:15:44;;;;;;;;;;;;;;;20.21;48.06;101000.00;4989791;28;97308;-77
2021/08/03 01:18:16;;;;;;;;;;;;;;;20.07;48.17;100989.41;4983495;28;98936;-77
2021/08/03 01:20:56;;;;;;;;;;;;;;;20.11;48.47;100996.25;4989153;28;99078;-75
2021/08/03 01:23:44;;;;;;;;;;;;;;;20.14;48.81;100997.88;4992037;28;96847;-76
2021/08/03 01:26:25;;;;;;;;;;;;;;;20.02;48.92;101001.41;4993438;28;98353;-75
2021/08/03 01:28:55;;;;;;;;;;;;;;;20.10;48.71;101007.94;4990521;28;99475;-76
2021/08/03 01:31:23;;;;;;;;;;;;;;;19.99;49.28;101002.47;4991269;28;97838;-76
2021/08/03 01:33:51;;;;;;;;;;;;;;;19.94;49.89;101010.00;4987905;28;97021;-77
2021/08/03 01:36:18;;;;;;;;;;;;;;;19.99;50.09;101013.22;4991075;28;97090;-76
2021/08/03 01:38:46;;;;;;;;;;;;;;;20.07;49.64;101010.00;4992866;28;99115;-76
2021/08/03 01:41:15;;;;;;;;;;;;;;;20.11;49.48;101012.34;4985681;28;98782;-76
2021/08/03 01:43:41;;;;;;;;;;;;;;;19.86;49.65;101013.22;4988410;28;96788;-76
2021/08/03 01:46:09;;;;;;;;;;;;;;;20.14;48.80;101006.78;4989006;28;96944;-77
2021/08/03 01:48:36;;;;;;;;;;;;;;;20.13;48.38;101015.78;4994462;28;98940;-76
2021/08/03 01:51:03;;;;;;;;;;;;;;;20.07;48.71;101018.91;4990507;28;98766;-76
2021/08/03 01:53:29;;;;;;;;;;;;;;;19.89;48.15;101022.84;4993979;28;97234;-77
2021/08/03 01:55:57;;;;;;;;;;;;;;;20.12;47.94;101018.56;4994408;28;96946;-75
2021/08/03 01:58:23;;;;;;;;;;;;;;;20.16;47.88;101020.91;4993832;28;99405;-77
2021/08/03 02:00:51;;;;;;;;;;;;;;;20.01;48.36;101013.97;4992896;28;98795;-76
2021/08/03 02:03:19;;;;;;;;;;;;;;;19.94;48.09;101019.88;4993840;28;96952;-77
2021/08/03 02:05:46;;;;;;;;;;;;;;;20.07;47.97;101015.34;4984474;28;97743;-74
2021/08/03 02:08:13;;;;;;;;;;;;;;;20.17;47.66;101009.22;4992241;28;99260;-76
2021/08/03 02:10:40;;;;;;;;;;;;;;;20.22;47.65;101014.25;4985389;28;98799;-77
2021/08/03 02:13:07;;;;;;;;;;;;;;;20.14;47.88;101020.19;4993378;28;97352;-75
2021/08/03 02:15:34;;;;;;;;;;;;;;;20.09;47.96;101025.00;4990193;28;97437;-75
2021/08/03 02:18:00;;;;;;;;;;;;;;;20.13;47.84;101020.28;4993690;28;99441;-75
2021/08/03 02:20:28;;;;;;;;;;;;;;;20.26;47.73;101016.63;4992084;28;98797;-76
2021/08/03 02:22:54;;;;;;;;;;;;;;;20.22;48.25;101007.06;4993315;28;96913;-76
2021/08/03 02:25:20;;;;;;;;;;;;;;;20.36;48.10;101016.84;4992198;28;97207;-75
2021/08/03 02:27:47;;;;;;;;;;;;;;;20.35;47.69;101016.97;4987833;28;98804;-76
2021/08/03 02:30:13;;;;;;;;;;;;;;;20.37;47.77;101012.34;4991416;28;99127;-75
2021/08/03 02:32:42;;;;;;;;;;;;;;;20.26;48.16;101013.09;4991270;28;97153;-76
2021/08/03 02:35:10;;;;;;;;;;;;;;;20.36;47.64;101016.84;4993289;28;99000;-76
2021/08/03 02:37:39;;;;;;;;;;;;;;;20.25;48.40;101020.28;4991302;28;99460;-76
2021/08/03 02:40:06;;;;;;;;;;;;;;;20.14;48.89;101022.88;4987977;28;98941;-75
2021/08/03 02:42:33;;;;;;;;;;;;;;;20.12;49.75;101024.78;4992471;28;97373;-76
2021/08/03 02:45:01;;;;;;;;;;;;;;;19.88;50.59;101026.53;4987419;28;96979;-76
2021/08/03 02:47:30;;;;;;;;;;;;;;;19.82;50.43;101024.28;4990735;28;97768;-77
2021/08/03 02:50:05;;;;;;;;;;;;;;;19.85;50.76;101030.25;5000556;28;98829;-76
2021/08/03 02:52:32;;;;;;;;;;;;;;;19.46;51.86;101023.16;4984668;28;97351;-76
2021/08/03 02:55:03;;;;;;;;;;;;;;;19.73;51.29;101032.94;4992004;28;96797;-76
2021/08/03 02:57:30;;;;;;;;;;;;;;;19.73;51.02;101032.94;4991226;28;99306;-77
2021/08/03 02:59:58;;;;;;;;;;;;;;;19.76;50.66;101032.72;4993130;28;98860;-76
2021/08/03 03:02:26;;;;;;;;;;;;;;;19.71;51.03;101026.81;4992377;28;97598;-75
2021/08/03 03:04:55;;;;;;;;;;;;;;;19.67;51.10;101042.28;4993251;28;96792;-75
2021/08/03 03:07:25;;;;;;;;;;;;;;;19.69;51.42;101045.69;4983572;28;99563;-74
2021/08/03 03:09:53;;;;;;;;;;;;;;;19.64;51.85;101049.66;4989697;28;98941;-75
2021/08/03 03:12:21;;;;;;;;;;;;;;;19.59;51.69;101047.28;4991464;28;98734;-75
2021/08/03 03:14:48;;;;;;;;;;;;;;;19.76;50.78;101055.03;4993086;28;97284;-75
2021/08/03 03:17:15;;;;;;;;;;;;;;;19.85;50.11;101048.19;4984476;28;98887;-76
2021/08/03 03:19:42;;;;;;;;;;;;;;;20.04;49.33;101053.13;4990847;28;99127;-76
2021/08/03 03:22:09;;;;;;;;;;;;;;;20.15;49.13;101054.06;4991813;28;98729;-76
2021/08/03 03:24:37;;;;;;;;;;;;;;;20.21;48.98;101058.16;4993887;28;97389;-76
2021/08/03 03:27:05;;;;;;;;;;;;;;;20.12;48.97;101051.63;4990850;28;98816;-76
2021/08/03 03:29:35;;;;;;;;;;;;;;;20.14;49.03;101055.06;4993064;28;98873;-76
2021/08/03 03:32:02;;;;;;;;;;;;;;;20.14;49.23;101057.75;4991001;28;97257;-76
2021/08/03 03:34:28;;;;;;;;;;;;;;;20.17;49.07;101059.34;4996354;28;97130;-76
2021/08/03 03:36:56;;;;;;;;;;;;;;;20.23;49.01;101053.53;4989986;28;99319;-76
2021/08/03 03:39:23;;;;;;;;;;;;;;;20.17;49.30;101051.28;4992598;28;98781;-77
2021/08/03 03:41:50;;;;;;;;;;;;;;;20.13;49.06;101042.59;4990985;28;96809;-76
2021/08/03 03:44:17;;;;;;;;;;;;;;;20.19;48.98;101052.03;4994101;28;97117;-77
2021/08/03 03:46:48;;;;;;;;;;;;;;;20.28;48.96;101056.78;4991503;28;99018;-77
2021/08/03 03:49:17;;;;;;;;;;;;;;;20.19;48.98;101058.28;4993595;28;98842;-76
2021/08/03 03:51:44;;;;;;;;;;;;;;;20.25;48.86;101057.84;4990686;28;98700;-77
2021/08/03 03:54:13;;;;;;;;;;;;;;;20.28;48.78;101048.72;4987175;28;97034;-76
2021/08/03 03:56:41;;;;;;;;;;;;;;;20.11;49.14;101055.25;4992881;28;99248;-75
2021/08/03 03:59:07;;;;;;;;;;;;;;;20.26;48.90;101064.94;4992105;28;99298;-75
2021/08/03 04:01:34;;;;;;;;;;;;;;;20.37;48.88;101060.63;4992749;28;98268;-75
2021/08/03 04:04:05;;;;;;;;;;;;;;;20.42;48.65;101063.84;4991512;28;96884;-75
2021/08/03 04:06:32;;;;;;;;;;;;;;;20.37;48.63;101064.19;4989743;28;99445;-74
2021/08/03 04:08:59;;;;;;;;;;;;;;;20.32;48.79;101062.75;4989211;28;98785;-77
2021/08/03 04:11:25;;;;;;;;;;;;;;;20.38;48.73;101063.22;4994103;28;97188;-75
2021/08/03 04:13:52;;;;;;;;;;;;;;;20.27;48.93;101074.69;4992571;28;96918;-77
2021/08/03 04:16:19;;;;;;;;;;;;;;;20.56;48.31;101071.78;4991777;28;99024;-77
2021/08/03 04:18:45;;;;;;;;;;;;;;;20.54;48.56;101069.22;4991671;28;98830;-75
2021/08/03 04:21:13;;;;;;;;;;;;;;;20.48;48.54;101077.69;4992826;28;96852;-77
2021/08/03 04:23:40;;;;;;;;;;;;;;;20.75;48.01;101072.16;4993862;28;96988;-77
2021/08/03 04:26:06;;;;;;;;;;;;;;;20.63;48.25;101073.06;4990918;28;98922;-76
2021/08/03 04:28:33;;;;;;;;;;;;;;;20.82;48.02;101078.81;4992700;28;99032;-76
2021/08/03 04:31:00;;;;;;;;;;;;;;;20.85;48.10;101085.78;4982567;28;96816;-77
2021/08/03 04:33:26;;;;;;;;;;;;;;;20.82;48.15;101081.50;4988315;28;96935;-77
2021/08/03 04:35:52;;;;;;;;;;;;;;;20.82;48.40;101083.31;4988600;28;99047;-77
2021/08/03 04:38:20;;;;;;;;;;;;;;;20.85;48.17;101083.97;4989123;28;98819;-77
2021/08/03 04:40:46;;;;;;;;;;;;;;;20.86;48.14;101077.63;4983847;28;97496;-76
2021/08/03 04:43:13;;;;;;;;;;;;;;;21.05;47.67;101083.38;4990535;28;96865;-77
2021/08/03 04:45:39;;;;;;;;;;;;;;;20.96;47.43;101092.09;4983167;28;99015;-76
2021/08/03 04:48:06;;;;;;;;;;;;;;;21.04;47.62;101086.16;4986963;28;98857;-76
2021/08/03 04:50:32;;;;;;;;;;;;;;;21.05;47.93;101090.56;4980337;28;97996;-77
2021/08/03 04:52:58;;;;;;;;;;;;;;;21.16;47.71;101089.78;4985496;28;97075;-77
2021/08/03 04:55:26;;;;;;;;;;;;;;;21.27;47.41;101089.84;4990904;28;100512;-77
2021/08/03 04:57:52;;;;;;;;;;;;;;;21.31;46.91;101089.53;4987339;28;98884;-76
2021/08/03 05:00:18;;;;;;;;;;;;;;;21.49;46.73;101089.97;4991364;28;98881;-76
2021/08/03 05:02:45;;;;;;;;;;;;;;;21.43;46.66;101088.59;4991128;28;97569;-76
2021/08/03 05:05:12;;;;;;;;;;;;;;;21.39;46.60;101083.56;4990787;28;97817;-76
2021/08/03 05:07:38;;;;;;;;;;;;;;;21.20;47.12;101094.81;4988852;28;98888;-77
2021/08/03 05:10:05;;;;;;;;;;;;;;;21.22;46.87;101081.28;4991798;28;96815;-76
2021/08/03 05:12:34;;;;;;;;;;;;;;;20.95;47.70;101095.75;4990709;28;99921;-76
2021/08/03 05:15:01;;;;;;;;;;;;;;;21.26;46.83;101088.16;4989149;28;99377;-75
2021/08/03 05:17:28;;;;;;;;;;;;;;;21.19;47.14;101086.88;4987908;28;99278;-76
2021/08/03 05:19:54;;;;;;;;;;;;;;;21.50;46.15;101080.06;4989816;28;97073;-76
2021/08/03 05:22:20;;;;;;;;;;;;;;;21.62;45.60;101085.38;4986689;28;97312;-75
2021/08/03 05:24:46;;;;;;;;;;;;;;;21.60;45.92;101081.94;4991916;28;98234;-75
2021/08/03 05:27:13;;;;;;;;;;;;;;;21.76;45.59;101079.78;4984601;28;98971;-76
2021/08/03 05:29:40;;;;;;;;;;;;;;;21.85;45.37;101079.09;4986937;28;97130;-76
2021/08/03 05:32:07;;;;;;;;;;;;;;;22.20;44.52;101076.34;4986567;28;98536;-76
2021/08/03 05:34:33;;;;;;;;;;;;;;;22.27;44.34;101084.81;5004057;28;99206;-76
2021/08/03 05:37:01;;;;;;;;;;;;;;;22.31;44.20;101077.38;5000512;28;98867;-76
2021/08/03 05:39:28;;;;;;;;;;;;;;;21.49;45.92;101084.56;4995146;28;97188;-76
2021/08/03 05:41:54;;;;;;;;;;;;;;;21.62;45.98;101085.38;4993053;28;97086;-76
2021/08/03 05:44:20;;;;;;;;;;;;;;;21.59;46.00;101091.00;4993394;28;98933;-76
2021/08/03 05:46:48;;;;;;;;;;;;;;;21.86;45.75;101091.53;4994748;28;98823;-76
2021/08/03 05:49:14;;;;;;;;;;;;;;;21.77;45.59;101092.28;4992661;28;96850;-76
2021/08/03 05:51:41;;;;;;;;;;;;;;;22.04;45.31;101101.91;4993743;28;97776;-77
2021/08/03 05:54:07;;;;;;;;;;;;;;;22.35;44.67;101095.84;4995401;28;99300;-76
2021/08/03 05:56:33;;;;;;;;;;;;;;;22.53;44.29;101099.75;4990994;28;98860;-77
2021/08/03 05:59:00;;;;;;;;;;;;;;;22.58;44.22;101096.69;4995210;28;97866;-79
2021/08/03 06:01:26;;;;;;;;;;;;;;;22.21;45.00;101087.97;4994175;28;97263;-79
2021/08/03 06:03:55;;;;;;;;;;;;;;;22.37;44.86;101098.41;4994684;28;99300;-79
2021/08/03 06:06:22;;;;;;;;;;;;;;;22.46;44.33;101094.97;4991015;28;98074;-80
2021/08/03 06:08:48;;;;;;;;;;;;;;;22.55;44.18;101108.56;4988551;28;96911;-80
2021/08/03 06:11:17;;;;;;;;;;;;;;;22.19;44.98;101112.31;4987583;28;99082;-77
2021/08/03 06:13:46;;;;;;;;;;;;;;;22.19;45.53;101106.06;4994148;28;98968;-77
2021/08/03 06:16:15;;;;;;;;;;;;;;;22.26;44.91;101102.78;4991865;28;99000;-76
2021/08/03 06:18:44;;;;;;;;;;;;;;;22.17;45.18;101102.66;4989116;28;97609;-76
2021/08/03 06:21:12;;;;;;;;;;;;;;;22.03;45.77;101105.56;4991588;28;96992;-77
2021/08/03 06:23:39;;;;;;;;;;;;;;;21.74;46.24;101105.06;4992049;28;99129;-78
2021/08/03 06:26:05;;;;;;;;;;;;;;;22.15;45.83;101105.47;4994172;28;98955;-75
2021/08/03 06:28:32;;;;;;;;;;;;;;;22.35;45.24;101111.13;4995128;28;97197;-77
2021/08/03 06:30:59;;;;;;;;;;;;;;;22.42;44.83;101107.84;4993487;28;97020;-76
2021/08/03 06:33:25;;;;;;;;;;;;;;;22.25;45.38;101111.84;4991306;28;99083;-78
2021/08/03 06:35:53;;;;;;;;;;;;;;;22.24;45.21;101111.97;4989163;28;98797;-76
2021/08/03 06:38:20;;;;;;;;;;;;;;;22.57;44.71;101119.22;4992227;28;96801;-77
2021/08/03 06:40:50;;;;;;;;;;;;;;;22.51;44.72;101111.63;4993830;28;96919;-77
2021/08/03 06:43:18;;;;;;;;;;;;;;;22.77;44.08;101117.66;4993305;28;100116;-78
2021/08/03 06:45:47;;;;;;;;;;;;;;;22.75;43.96;101115.09;4988164;28;98824;-77
2021/08/03 06:48:19;;;;;;;;;;;;;;;22.89;44.00;101119.38;4991892;28;96855;-76
2021/08/03 06:50:46;;;;;;;;;;;;;;;22.85;44.36;101110.66;4990253;28;97636;-77
2021/08/03 06:53:13;;;;;;;;;;;;;;;22.46;44.97;101117.38;4989220;28;98892;-76
2021/08/03 06:55:42;;;;;;;;;;;;;;;22.45;45.05;101117.50;4992733;28;98851;-77
2021/08/03 06:58:10;;;;;;;;;;;;;;;22.49;44.98;101113.59;4993235;28;96929;-75
2021/08/03 07:00:38;;;;;;;;;;;;;;;22.70;44.74;101117.25;4992481;28;98264;-78
2021/08/03 07:03:05;;;;;;;;;;;;;;;22.62;45.07;101112.50;4994978;28;98909;-76
2021/08/03 07:05:33;;;;;;;;;;;;;;;22.74;45.27;101112.50;4993108;28;98809;-77
2021/08/03 07:07:59;;;;;;;;;;;;;;;22.81;45.08;101114.59;4994305;28;97123;-76
2021/08/03 07:10:26;;;;;;;;;;;;;;;22.78;44.94;101122.03;4995909;28;96973;-78
2021/08/03 07:12:54;;;;;;;;;;;;;;;22.96;44.35;101116.06;5005731;28;98929;-77
2021/08/03 07:15:21;;;;;;;;;;;;;;;23.18;43.86;101114.28;5002254;28;98774;-77
2021/08/03 07:17:48;;;;;;;;;;;;;;;23.54;43.23;101107.69;4998484;28;96888;-77
2021/08/03 07:20:15;;;;;;;;;;;;;;;23.74;42.52;101112.28;5000183;28;98477;-77
2021/08/03 07:22:41;;;;;;;;;;;;;;;23.63;42.80;101115.03;4991922;28;98831;-78
2021/08/03 07:25:08;;;;;;;;;;;;;;;23.61;42.86;101117.00;4989308;28;99231;-77
2021/08/03 07:27:35;;;;;;;;;;;;;;;23.58;42.77;101119.94;4979199;28;97107;-78
2021/08/03 07:30:03;;;;;;;;;;;;;;;23.49;43.48;101120.72;4982591;28;97061;-80
2021/08/03 07:32:31;;;;;;;;;;;;;;;23.32;43.79;101122.09;4997004;28;99305;-77
2021/08/03 07:34:57;;;;;;;;;;;;;;;23.74;42.86;101110.44;4993776;28;99249;-75
2021/08/03 07:37:23;;;;;;;;;;;;;;;23.52;43.23;101129.41;4999273;28;96959;-77
2021/08/03 07:39:50;;;;;;;;;;;;;;;23.38;43.47;101127.81;4995917;28;96830;-76
2021/08/03 07:42:16;;;;;;;;;;;;;;;24.37;41.68;101116.69;4991247;28;98971;-76
2021/08/03 07:44:43;;;;;;;;;;;;;;;24.89;40.46;101121.06;4994902;28;99598;-77
2021/08/03 07:47:12;;;;;;;;;;;;;;;25.22;39.28;101117.19;4995422;28;96816;-77
2021/08/03 07:49:40;;;;;;;;;;;;;;;25.39;38.96;101115.66;4995043;28;96878;-77
2021/08/03 07:52:07;;;;;;;;;;;;;;;25.48;38.91;101111.22;4995806;28;99142;-76
2021/08/03 07:54:33;;;;;;;;;;;;;;;25.28;39.31;101116.63;4995130;28;97767;-77
2021/08/03 07:57:00;;;;;;;;;;;;;;;24.81;40.34;101120.88;4994578;28;97268;-78
2021/08/03 07:59:32;;;;;;;;;;;;;;;25.38;39.45;101122.06;4998196;28;96922;-78
2021/08/03 08:02:02;;;;;;;;;;;;;;;25.62;38.99;101114.41;4989033;28;99501;-78
2021/08/03 08:04:30;;;;;;;;;;;;;;;26.06;37.87;101122.91;4987438;28;100517;-78
2021/08/03 08:06:56;;;;;;;;;;;;;;;25.88;37.41;101114.66;4989748;28;96947;-78
2021/08/03 08:09:22;;;;;;;;;;;;;;;26.17;37.89;101123.63;4989496;28;97952;-79
2021/08/03 08:11:49;;;;;;;;;;;;;;;26.20;37.63;101111.63;4992775;28;98111;-77
2021/08/03 08:14:15;;;;;;;;;;;;;;;25.74;38.04;101113.25;4990254;28;98865;-76
2021/08/03 08:16:41;;;;;;;;;;;;;;;26.25;37.01;101106.69;4992348;28;96958;-78
2021/08/03 08:19:08;;;;;;;;;;;;;;;26.70;36.70;101112.22;4993299;28;97543;-78
2021/08/03 08:21:42;;;;;;;;;;;;;;;27.40;35.03;101107.97;4993195;28;98921;-78
2021/08/03 08:24:08;;;;;;;;;;;;;;;27.84;34.01;101103.47;4996128;28;98903;-77
2021/08/03 08:26:34;;;;;;;;;;;;;;;27.05;34.78;101100.63;4995228;28;97867;-76
2021/08/03 08:29:04;;;;;;;;;;;;;;;26.34;36.01;101113.03;4997262;28;96830;-76
2021/08/03 08:31:30;;;;;;;;;;;;;;;26.14;36.54;101110.34;4993116;28;99530;-76
2021/08/03 08:33:56;;;;;;;;;;;;;;;25.87;36.94;101104.84;4995722;28;99306;-77
2021/08/03 08:36:23;;;;;;;;;;;;;;;25.77;38.09;101106.72;4995072;28;97260;-77
2021/08/03 08:38:51;;;;;;;;;;;;;;;25.62;37.83;101108.13;4992998;28;96972;-77
2021/08/03 08:41:19;;;;;;;;;;;;;;;25.55;38.26;101098.84;4995544;28;99655;-78
2021/08/03 08:43:45;;;;;;;;;;;;;;;25.68;37.69;101100.28;4987941;28;99770;-77
2021/08/03 08:46:11;;;;;;;;;;;;;;;25.64;37.06;101098.88;4992795;28;96898;-76
2021/08/03 08:48:39;;;;;;;;;;;;;;;25.86;36.57;101100.44;4994969;28;96838;-77
2021/08/03 08:51:05;;;;;;;;;;;;;;;25.87;37.41;101091.31;4986856;28;100817;-78
2021/08/03 08:53:34;;;;;;;;;;;;;;;25.73;37.50;101100.72;4999973;28;98148;-80
2021/08/03 08:56:01;;;;;;;;;;;;;;;25.78;37.19;101094.88;4994071;28;97046;-77
2021/08/03 08:58:28;;;;;;;;;;;;;;;25.25;38.49;101102.53;4993526;28;96833;-77
2021/08/03 09:00:54;;;;;;;;;;;;;;;25.29;37.86;101101.25;4994823;28;98413;-78
2021/08/03 09:03:20;;;;;;;;;;;;;;;25.31;38.06;101096.56;4994454;28;98901;-77
2021/08/03 09:05:57;;;;;;;;;;;;;;;25.16;37.78;101097.94;4994997;28;97669;-77
2021/08/03 09:08:27;;;;;;;;;;;;;;;25.29;37.99;101095.84;4996586;28;96741;-77
2021/08/03 09:10:53;;;;;;;;;;;;;;;24.78;39.35;101098.69;4995846;28;99273;-77
2021/08/03 09:13:22;;;;;;;;;;;;;;;25.88;37.51;101100.28;4994299;28;98733;-77
2021/08/03 09:15:56;;;;;;;;;;;;;;;26.23;37.36;101100.50;4990336;28;97312;-77
2021/08/03 09:18:27;;;;;;;;;;;;;;;26.98;35.13;101104.13;4997627;28;96884;-77
2021/08/03 09:20:53;;;;;;;;;;;;;;;27.04;33.57;101098.94;4994710;28;96980;-77
2021/08/03 09:23:19;;;;;;;;;;;;;;;27.51;32.22;101104.16;4994309;28;98891;-76
2021/08/03 09:25:56;;;;;;;;;;;;;;;27.64;32.30;101097.34;4997492;28;97306;-77
2021/08/03 09:28:28;;;;;;;;;;;;;;;27.14;33.59;101088.00;4995794;28;97320;-78
2021/08/03 09:30:54;;;;;;;;;;;;;;;27.21;33.19;101095.38;4994990;28;101336;-76
2021/08/03 09:33:24;;;;;;;;;;;;;;;26.15;34.91;101094.97;4993048;28;98814;-76
2021/08/03 09:35:51;;;;;;;;;;;;;;;26.51;34.86;101096.88;4996413;28;97119;-76
2021/08/03 09:38:19;;;;;;;;;;;;;;;26.12;34.88;101084.44;4998248;28;96982;-78
2021/08/03 09:40:45;;;;;;;;;;;;;;;26.77;34.11;101093.50;4994821;28;97750;-76
2021/08/03 09:43:12;;;;;;;;;;;;;;;27.19;33.32;101086.53;4993483;28;98687;-78
2021/08/03 09:45:53;;;;;;;;;;;;;;;27.16;33.68;101094.16;4992015;28;97416;-77
2021/08/03 09:48:22;;;;;;;;;;;;;;;27.61;33.21;101084.13;4994732;28;96808;-76
2021/08/03 09:50:52;;;;;;;;;;;;;;;27.81;32.28;101082.06;4990086;28;98953;-77
2021/08/03 09:53:33;;;;;;;;;;;;;;;27.31;33.11;101079.03;4994143;28;100038;-76
2021/08/03 09:55:59;;;;;;;;;;;;;;;27.50;33.25;101089.75;4994073;28;98336;-78
2021/08/03 09:58:27;;;;;;;;;;;;;;;26.91;33.38;101090.31;4995004;28;97317;-77
2021/08/03 10:00:55;;;;;;;;;;;;;;;26.99;33.34;101087.69;4994453;28;99309;-77
2021/08/03 10:03:23;;;;;;;;;;;;;;;27.45;32.99;101083.06;4997549;28;99655;-77
2021/08/03 10:05:50;;;;;;;;;;;;;;;27.44;33.10;101081.38;4984959;28;96999;-77
2021/08/03 10:08:17;;;;;;;;;;;;;;;27.03;33.83;101086.38;4995293;28;96978;-77
2021/08/03 10:10:44;;;;;;;;;;;;;;;26.36;33.41;101086.66;4996092;28;99168;-77
2021/08/03 10:13:11;;;;;;;;;;;;;;;26.66;32.75;101082.81;4995186;28;99078;-78
2021/08/03 10:15:37;;;;;;;;;;;;;;;25.66;34.42;101072.53;4995268;28;96802;-76
2021/08/03 10:18:04;;;;;;;;;;;;;;;26.42;33.76;101070.69;4996853;28;96870;-79
2021/08/03 10:20:40;;;;;;;;;;;;;;;26.78;32.93;101073.50;4991688;28;99882;-77
2021/08/03 10:23:07;;;;;;;;;;;;;;;25.74;34.30;101074.50;4992678;28;98743;-81
2021/08/03 10:25:36;;;;;;;;;;;;;;;25.43;34.20;101073.78;4996444;28;96898;-82
2021/08/03 10:28:18;;;;;;;;;;;;;;;25.82;34.08;101071.09;5004042;28;97019;-81
2021/08/03 10:30:47;;;;;;;;;;;;;;;25.74;34.51;101075.38;5002738;28;99732;-80
2021/08/03 10:33:28;;;;;;;;;;;;;;;25.99;34.18;101067.66;4990539;28;99203;-80
2021/08/03 10:35:59;;;;;;;;;;;;;;;26.42;33.41;101070.69;4982261;28;98001;-79
2021/08/03 10:41:10;;;;;;;;;;;;;;;26.31;32.84;101070.88;5001492;28;99741;-79
2021/08/03 10:43:51;;;;;;;;;;;;;;;25.69;34.53;101057.84;4994773;28;99275;-80
2021/08/03 10:46:36;;;;;;;;;;;;;;;26.46;32.87;101058.53;4990938;28;98471;-79
2021/08/03 10:49:03;;;;;;;;;;;;;;;26.72;33.01;101061.41;4989957;28;97732;-81
2021/08/03 10:51:43;;;;;;;;;;;;;;;26.85;32.79;101055.63;4993474;28;99466;-80
2021/08/03 10:54:11;;;;;;;;;;;;;;;26.85;32.88;101055.63;4990488;28;98744;-81
2021/08/03 10:56:57;;;;;;;;;;;;;;;26.96;32.54;101063.59;4995481;28;97177;-79
2021/08/03 10:59:33;;;;;;;;;;;;;;;26.90;32.53;101047.94;4997702;28;97754;-81
2021/08/03 11:02:00;;;;;;;;;;;;;;;27.15;32.38;101040.91;4996208;28;100956;-80
2021/08/03 11:04:42;;;;;;;;;;;;;;;27.00;32.04;101051.41;4995735;28;97625;-81
2021/08/03 11:07:23;;;;;;;;;;;;;;;27.12;30.92;101036.63;4993958;28;99176;-80
2021/08/03 11:09:51;;;;;;;;;;;;;;;27.38;31.35;101042.97;4994823;28;96852;-81
2021/08/03 11:12:33;;;;;;;;;;;;;;;27.34;31.22;101038.88;4993423;28;98349;-80
2021/08/03 11:14:59;;;;;;;;;;;;;;;27.46;30.71;101035.94;4985550;28;99242;-81
2021/08/03 11:17:45;;;;;;;;;;;;;;;27.23;30.64;101030.13;4993092;28;96899;-81
2021/08/03 11:20:31;;;;;;;;;;;;;;;27.39;30.38;101027.56;4994399;28;97064;-80
2021/08/03 11:22:58;;;;;;;;;;;;;;;27.55;30.03;101027.75;4991445;28;100895;-79
2021/08/03 11:25:25;;;;;;;;;;;;;;;27.54;30.18;101017.91;4996895;28;98083;-81
2021/08/03 11:27:52;;;;;;;;;;;;;;;27.32;30.16;101012.91;4994821;28;97136;-80
2021/08/03 11:30:18;;;;;;;;;;;;;;;27.10;31.66;101025.09;4990527;28;96844;-81
2021/08/03 11:32:48;;;;;;;;;;;;;;;27.33;30.98;101026.31;4997715;28;102341;-79
2021/08/03 11:35:25;;;;;;;;;;;;;;;27.55;30.80;101018.75;4996993;28;97547;-83
2021/08/03 11:37:51;;;;;;;;;;;;;;;27.46;29.81;101017.78;4999230;28;96924;-82
2021/08/03 11:40:18;;;;;;;;;;;;;;;27.63;29.50;101010.69;4994994;28;97201;-81
2021/08/03 11:42:47;;;;;;;;;;;;;;;27.57;29.63;101019.44;4995422;28;96890;-82
2021/08/03 11:45:14;;;;;;;;;;;;;;;27.40;30.84;101009.41;4993925;28;100012;-82
2021/08/03 11:47:43;;;;;;;;;;;;;;;27.94;30.10;101014.63;4995101;28;97249;-83
2021/08/03 11:50:10;;;;;;;;;;;;;;;28.13;28.71;101008.09;4993860;28;98722;-83
2021/08/03 11:52:39;;;;;;;;;;;;;;;28.12;29.29;101006.41;4994320;28;118772;-83
2021/08/03 11:55:06;;;;;;;;;;;;;;;27.62;30.35;100996.25;4990370;28;101613;-81
2021/08/03 11:57:34;;;;;;;;;;;;;;;27.58;30.19;100997.56;4999080;28;97327;-82
2021/08/03 12:00:07;;;;;;;;;;;;;;;27.49;30.03;100995.78;4995895;28;97063;-82
2021/08/03 12:02:34;;;;;;;;;;;;;;;27.12;30.43;100987.81;4984541;28;98429;-82
2021/08/03 12:05:08;;;;;;;;;;;;;;;28.05;28.88;100980.91;4988253;28;97911;-80
2021/08/03 12:07:35;;;;;;;;;;;;;;;28.32;28.81;100979.88;4994313;28;99195;-86
2021/08/03 12:10:01;;;;;;;;;;;;;;;28.35;29.23;100985.00;4986980;28;97069;-84
2021/08/03 12:12:28;;;;;;;;;;;;;;;27.75;29.95;100979.53;4987742;28;99310;-85
2021/08/03 12:15:03;;;;;;;;;;;;;;;27.88;29.57;100971.81;4996642;28;99018;-87
2021/08/03 12:17:30;;;;;;;;;;;;;;;28.13;29.44;100970.94;4988467;28;96899;-86
2021/08/03 12:20:03;;;;;;;;;;;;;;;28.40;29.36;100961.75;4998412;28;96945;-87
2021/08/03 12:22:31;;;;;;;;;;;;;;;28.12;29.24;100958.34;4998275;28;100271;-85
2021/08/03 12:24:58;;;;;;;;;;;;;;;28.23;29.92;100959.09;4986270;28;99526;-85
2021/08/03 12:27:25;;;;;;;;;;;;;;;28.55;29.12;100961.97;4985820;28;96781;-87
2021/08/03 12:29:59;;;;;;;;;;;;;;;28.68;28.46;100965.06;5001236;28;96821;-85
2021/08/03 12:32:38;;;;;;;;;;;;;;;28.81;27.05;100957.31;4987669;28;97607;-86
2021/08/03 12:35:11;;;;;;;;;;;;;;;28.99;26.84;100950.88;5014498;28;99219;-84
2021/08/03 12:37:37;;;;;;;;;;;;;;;28.65;27.66;100951.78;4993236;28;97101;-81
2021/08/03 12:40:04;;;;;;;;;;;;;;;28.31;27.29;100937.41;4997394;28;96951;-81
2021/08/03 12:42:34;;;;;;;;;;;;;;;28.77;26.44;100945.03;4996441;28;98878;-80
2021/08/03 12:45:12;;;;;;;;;;;;;;;29.17;26.09;100951.53;4997010;28;99339;-81